sensor_id;sensor_type;location;lat;lon;timestamp;pressure;altitude;pressure_sealevel;temperature;humidity
13387;BME280;6763;48.524;9.044;2022-10-31T00:01:55;98271.97;;;14.48;59.14
13387;BME280;6763;48.524;9.044;2022-10-31T00:04:21;98279.13;;;14.40;59.35
13387;BME280;6763;48.524;9.044;2022-10-31T00:06:46;98275.78;;;14.35;59.00
13387;BME280;6763;48.524;9.044;2022-10-31T00:09:11;98275.91;;;14.28;59.57
13387;BME280;6763;48.524;9.044;2022-10-31T00:11:37;98274.28;;;14.24;59.45
13387;BME280;6763;48.524;9.044;2022-10-31T00:14:03;98275.22;;;14.22;60.13
13387;BME280;6763;48.524;9.044;2022-10-31T00:16:29;98282.22;;;14.20;59.44
13387;BME280;6763;48.524;9.044;2022-10-31T00:18:56;98279.69;;;14.17;59.76
13387;BME280;6763;48.524;9.044;2022-10-31T00:21:22;98283.22;;;14.14;60.04
13387;BME280;6763;48.524;9.044;2022-10-31T00:23:48;98281.59;;;14.10;60.01
13387;BME280;6763;48.524;9.044;2022-10-31T00:26:14;98287.75;;;14.06;60.06
13387;BME280;6763;48.524;9.044;2022-10-31T00:28:39;98283.47;;;14.04;59.72
13387;BME280;6763;48.524;9.044;2022-10-31T00:31:07;98277.53;;;13.99;59.81
13387;BME280;6763;48.524;9.044;2022-10-31T00:33:34;98281.91;;;13.97;60.20
13387;BME280;6763;48.524;9.044;2022-10-31T00:36:02;98279.31;;;13.97;59.96
13387;BME280;6763;48.524;9.044;2022-10-31T00:38:27;98266.31;;;13.97;60.14
13387;BME280;6763;48.524;9.044;2022-10-31T00:40:53;98269.78;;;13.97;60.36
13387;BME280;6763;48.524;9.044;2022-10-31T00:43:18;98269.78;;;13.97;60.07
13387;BME280;6763;48.524;9.044;2022-10-31T00:45:43;98269.78;;;13.97;60.27
13387;BME280;6763;48.524;9.044;2022-10-31T00:48:09;98274.91;;;13.99;60.04
13387;BME280;6763;48.524;9.044;2022-10-31T00:50:35;98268.91;;;13.97;60.03
13387;BME280;6763;48.524;9.044;2022-10-31T00:53:00;98273.31;;;13.95;59.81
13387;BME280;6763;48.524;9.044;2022-10-31T00:55:25;98273.38;;;13.92;59.54
13387;BME280;6763;48.524;9.044;2022-10-31T00:57:51;98277.78;;;13.88;60.21
13387;BME280;6763;48.524;9.044;2022-10-31T01:00:16;98275.22;;;13.87;59.70
13387;BME280;6763;48.524;9.044;2022-10-31T01:02:42;98277.16;;;13.79;59.70
13387;BME280;6763;48.524;9.044;2022-10-31T01:05:07;98277.22;;;13.76;59.89
13387;BME280;6763;48.524;9.044;2022-10-31T01:07:37;98267.78;;;13.72;60.07
13387;BME280;6763;48.524;9.044;2022-10-31T01:10:04;98272.19;;;13.68;59.92
13387;BME280;6763;48.524;9.044;2022-10-31T01:12:30;98275.78;;;13.64;60.35
13387;BME280;6763;48.524;9.044;2022-10-31T01:15:00;98268.91;;;13.61;60.73
13387;BME280;6763;48.524;9.044;2022-10-31T01:17:25;98275.78;;;13.64;60.17
13387;BME280;6763;48.524;9.044;2022-10-31T01:19:51;98274.00;;;13.64;60.85
13387;BME280;6763;48.524;9.044;2022-10-31T01:22:16;98269.59;;;13.68;60.33
13387;BME280;6763;48.524;9.044;2022-10-31T01:24:41;98269.53;;;13.69;60.36
13387;BME280;6763;48.524;9.044;2022-10-31T01:27:06;98267.72;;;13.75;60.45
13387;BME280;6763;48.524;9.044;2022-10-31T01:29:32;98273.75;;;13.77;60.73
13387;BME280;6763;48.524;9.044;2022-10-31T01:31:57;98263.41;;;13.74;60.46
13387;BME280;6763;48.524;9.044;2022-10-31T01:34:22;98264.31;;;13.71;60.74
13387;BME280;6763;48.524;9.044;2022-10-31T01:36:48;98270.53;;;13.65;60.19
13387;BME280;6763;48.524;9.044;2022-10-31T01:39:16;98268.91;;;13.61;60.95
13387;BME280;6763;48.524;9.044;2022-10-31T01:41:45;98275.03;;;13.57;60.54
13387;BME280;6763;48.524;9.044;2022-10-31T01:46:44;98266.53;;;13.51;60.73
13387;BME280;6763;48.524;9.044;2022-10-31T01:49:28;98264.94;;;13.45;60.66
13387;BME280;6763;48.524;9.044;2022-10-31T01:52:03;98265.84;;;13.43;60.72
13387;BME280;6763;48.524;9.044;2022-10-31T01:54:33;98264.19;;;13.39;60.76
13387;BME280;6763;48.524;9.044;2022-10-31T01:57:01;98259.09;;;13.36;60.54
13387;BME280;6763;48.524;9.044;2022-10-31T01:59:29;98265.16;;;13.35;60.41
13387;BME280;6763;48.524;9.044;2022-10-31T02:01:56;98260.06;;;13.30;60.17
13387;BME280;6763;48.524;9.044;2022-10-31T02:04:23;98255.75;;;13.29;60.25
13387;BME280;6763;48.524;9.044;2022-10-31T02:06:56;98255.78;;;13.28;60.40
13387;BME280;6763;48.524;9.044;2022-10-31T02:09:24;98264.53;;;13.24;59.99
13387;BME280;6763;48.524;9.044;2022-10-31T02:11:52;98254.19;;;13.22;60.17
13387;BME280;6763;48.524;9.044;2022-10-31T02:14:22;98255.97;;;13.20;60.41
13387;BME280;6763;48.524;9.044;2022-10-31T02:16:47;98255.13;;;13.18;60.34
13387;BME280;6763;48.524;9.044;2022-10-31T02:19:18;98260.34;;;13.17;60.45
13387;BME280;6763;48.524;9.044;2022-10-31T02:21:53;98264.69;;;13.18;60.53
13387;BME280;6763;48.524;9.044;2022-10-31T02:30:06;98257.88;;;13.11;60.53
13387;BME280;6763;48.524;9.044;2022-10-31T02:35:23;98251.03;;;13.05;60.07
13387;BME280;6763;48.524;9.044;2022-10-31T02:38:07;98254.53;;;13.04;60.35
13387;BME280;6763;48.524;9.044;2022-10-31T02:40:35;98251.13;;;13.02;59.90
13387;BME280;6763;48.524;9.044;2022-10-31T02:43:18;98259.75;;;13.02;60.01
13387;BME280;6763;48.524;9.044;2022-10-31T02:46:19;98248.59;;;12.99;60.17
13387;BME280;6763;48.524;9.044;2022-10-31T02:48:51;98252.84;;;13.01;60.37
13387;BME280;6763;48.524;9.044;2022-10-31T02:51:18;98250.31;;;12.98;60.54
13387;BME280;6763;48.524;9.044;2022-10-31T02:53:45;98249.44;;;12.99;60.59
13387;BME280;6763;48.524;9.044;2022-10-31T02:56:18;98252.91;;;12.98;60.54
13387;BME280;6763;48.524;9.044;2022-10-31T02:58:50;98245.13;;;12.97;60.15
13387;BME280;6763;48.524;9.044;2022-10-31T03:04:14;98248.75;;;12.90;60.53
13387;BME280;6763;48.524;9.044;2022-10-31T03:06:56;98250.53;;;12.88;59.92
13387;BME280;6763;48.524;9.044;2022-10-31T03:09:34;98248.06;;;12.82;60.02
13387;BME280;6763;48.524;9.044;2022-10-31T03:12:07;98255.06;;;12.78;59.89
13387;BME280;6763;48.524;9.044;2022-10-31T03:14:48;98243.06;;;12.73;60.14
13387;BME280;6763;48.524;9.044;2022-10-31T03:17:23;98247.44;;;12.71;60.57
13387;BME280;6763;48.524;9.044;2022-10-31T03:19:53;98247.44;;;12.69;60.69
13387;BME280;6763;48.524;9.044;2022-10-31T03:22:23;98243.16;;;12.67;60.27
13387;BME280;6763;48.524;9.044;2022-10-31T03:24:49;98249.28;;;12.64;60.09
13387;BME280;6763;48.524;9.044;2022-10-31T03:27:21;98237.25;;;12.60;60.26
13387;BME280;6763;48.524;9.044;2022-10-31T03:29:50;98251.06;;;12.61;60.38
13387;BME280;6763;48.524;9.044;2022-10-31T03:32:58;98251.16;;;12.58;60.29
13387;BME280;6763;48.524;9.044;2022-10-31T03:35:24;98240.75;;;12.58;60.26
13387;BME280;6763;48.524;9.044;2022-10-31T03:37:52;98238.22;;;12.55;60.22
13387;BME280;6763;48.524;9.044;2022-10-31T03:40:21;98248.59;;;12.55;60.02
13387;BME280;6763;48.524;9.044;2022-10-31T03:43:10;98239.13;;;12.52;60.16
13387;BME280;6763;48.524;9.044;2022-10-31T03:45:45;98242.56;;;12.54;59.97
13387;BME280;6763;48.524;9.044;2022-10-31T03:48:11;98249.53;;;12.52;60.50
13387;BME280;6763;48.524;9.044;2022-10-31T03:50:50;98246.06;;;12.52;60.16
13387;BME280;6763;48.524;9.044;2022-10-31T03:53:41;98244.41;;;12.48;60.26
13387;BME280;6763;48.524;9.044;2022-10-31T03:56:22;98239.25;;;12.46;60.09
13387;BME280;6763;48.524;9.044;2022-10-31T03:59:22;98241.06;;;12.41;60.29
13387;BME280;6763;48.524;9.044;2022-10-31T04:01:52;98240.22;;;12.40;60.56
13387;BME280;6763;48.524;9.044;2022-10-31T04:04:20;98240.25;;;12.39;60.16
13387;BME280;6763;48.524;9.044;2022-10-31T04:06:46;98238.50;;;12.39;60.06
13387;BME280;6763;48.524;9.044;2022-10-31T04:09:13;98240.25;;;12.37;59.89
13387;BME280;6763;48.524;9.044;2022-10-31T04:11:46;98241.16;;;12.36;59.86
13387;BME280;6763;48.524;9.044;2022-10-31T04:14:13;98242.94;;;12.34;60.04
13387;BME280;6763;48.524;9.044;2022-10-31T04:16:41;98239.50;;;12.32;59.54
13387;BME280;6763;48.524;9.044;2022-10-31T04:19:09;98236.97;;;12.29;59.36
13387;BME280;6763;48.524;9.044;2022-10-31T04:21:34;98238.72;;;12.27;59.71
13387;BME280;6763;48.524;9.044;2022-10-31T04:23:59;98224.97;;;12.22;59.78
13387;BME280;6763;48.524;9.044;2022-10-31T04:26:25;98230.09;;;12.25;59.23
13387;BME280;6763;48.524;9.044;2022-10-31T04:28:50;98232.75;;;12.24;59.78
13387;BME280;6763;48.524;9.044;2022-10-31T04:31:16;98233.56;;;12.26;59.82
13387;BME280;6763;48.524;9.044;2022-10-31T04:33:41;98230.09;;;12.25;59.48
13387;BME280;6763;48.524;9.044;2022-10-31T04:36:07;98233.66;;;12.21;59.57
13387;BME280;6763;48.524;9.044;2022-10-31T04:38:32;98225.09;;;12.16;59.35
13387;BME280;6763;48.524;9.044;2022-10-31T04:40:58;98223.38;;;12.15;59.05
13387;BME280;6763;48.524;9.044;2022-10-31T04:43:24;98225.16;;;12.12;59.35
13387;BME280;6763;48.524;9.044;2022-10-31T04:45:49;98226.94;;;12.10;59.54
13387;BME280;6763;48.524;9.044;2022-10-31T04:48:14;98229.56;;;12.08;59.42
13387;BME280;6763;48.524;9.044;2022-10-31T04:50:40;98221.84;;;12.05;59.39
13387;BME280;6763;48.524;9.044;2022-10-31T04:53:05;98220.09;;;12.04;59.39
13387;BME280;6763;48.524;9.044;2022-10-31T04:55:30;98225.34;;;12.01;59.58
13387;BME280;6763;48.524;9.044;2022-10-31T04:57:56;98219.31;;;12.01;59.66
13387;BME280;6763;48.524;9.044;2022-10-31T05:00:21;98214.13;;;12.01;59.33
13387;BME280;6763;48.524;9.044;2022-10-31T05:02:54;98211.56;;;11.99;59.30
13387;BME280;6763;48.524;9.044;2022-10-31T05:05:23;98211.59;;;11.96;59.51
13387;BME280;6763;48.524;9.044;2022-10-31T05:07:49;98211.72;;;11.90;59.51
13387;BME280;6763;48.524;9.044;2022-10-31T05:10:18;98209.19;;;11.87;59.16
13387;BME280;6763;48.524;9.044;2022-10-31T05:12:52;98201.50;;;11.82;59.09
13387;BME280;6763;48.524;9.044;2022-10-31T05:15:19;98206.72;;;11.78;59.40
13387;BME280;6763;48.524;9.044;2022-10-31T05:17:45;98205.06;;;11.74;59.23
13387;BME280;6763;48.524;9.044;2022-10-31T05:20:12;98204.22;;;11.73;59.18
13387;BME280;6763;48.524;9.044;2022-10-31T05:22:45;98198.22;;;11.71;58.64
13387;BME280;6763;48.524;9.044;2022-10-31T05:25:11;98200.78;;;11.71;59.22
13387;BME280;6763;48.524;9.044;2022-10-31T05:27:40;98194.75;;;11.71;59.29
13387;BME280;6763;48.524;9.044;2022-10-31T05:30:06;98201.66;;;11.70;59.55
13387;BME280;6763;48.524;9.044;2022-10-31T05:32:39;98197.38;;;11.69;59.31
13387;BME280;6763;48.524;9.044;2022-10-31T05:35:07;98201.69;;;11.67;58.92
13387;BME280;6763;48.524;9.044;2022-10-31T05:37:34;98198.25;;;11.65;59.25
13387;BME280;6763;48.524;9.044;2022-10-31T05:40:00;98201.75;;;11.64;59.34
13387;BME280;6763;48.524;9.044;2022-10-31T05:42:25;98186.22;;;11.63;59.68
13387;BME280;6763;48.524;9.044;2022-10-31T05:44:50;98188.84;;;11.61;59.64
13387;BME280;6763;48.524;9.044;2022-10-31T05:47:16;98193.16;;;11.61;59.40
13387;BME280;6763;48.524;9.044;2022-10-31T05:49:41;98183.69;;;11.58;59.42
13387;BME280;6763;48.524;9.044;2022-10-31T05:52:06;98193.25;;;11.56;59.87
13387;BME280;6763;48.524;9.044;2022-10-31T05:54:32;98187.25;;;11.53;59.65
13387;BME280;6763;48.524;9.044;2022-10-31T05:56:57;98196.78;;;11.49;59.34
13387;BME280;6763;48.524;9.044;2022-10-31T05:59:22;98196.81;;;11.48;59.20
13387;BME280;6763;48.524;9.044;2022-10-31T06:01:48;98194.28;;;11.46;59.22
13387;BME280;6763;48.524;9.044;2022-10-31T06:04:13;98196.91;;;11.43;59.24
13387;BME280;6763;48.524;9.044;2022-10-31T06:06:38;98188.22;;;11.44;59.63
13387;BME280;6763;48.524;9.044;2022-10-31T06:09:04;98190.03;;;11.41;59.60
13387;BME280;6763;48.524;9.044;2022-10-31T06:11:29;98191.72;;;11.42;59.60
13387;BME280;6763;48.524;9.044;2022-10-31T06:13:54;98196.94;;;11.40;59.46
13387;BME280;6763;48.524;9.044;2022-10-31T06:16:19;98198.72;;;11.37;59.19
13387;BME280;6763;48.524;9.044;2022-10-31T06:18:46;98190.97;;;11.34;59.32
13387;BME280;6763;48.524;9.044;2022-10-31T06:21:11;98189.34;;;11.30;59.32
13387;BME280;6763;48.524;9.044;2022-10-31T06:23:36;98198.78;;;11.32;59.48
13387;BME280;6763;48.524;9.044;2022-10-31T06:26:02;98193.63;;;11.32;59.73
13387;BME280;6763;48.524;9.044;2022-10-31T06:28:27;98191.84;;;11.36;59.67
13387;BME280;6763;48.524;9.044;2022-10-31T06:30:52;98191.75;;;11.40;60.50
13387;BME280;6763;48.524;9.044;2022-10-31T06:33:17;98193.38;;;11.47;60.09
13387;BME280;6763;48.524;9.044;2022-10-31T06:35:47;98184.59;;;11.54;60.00
13387;BME280;6763;48.524;9.044;2022-10-31T06:38:13;98198.34;;;11.61;60.08
13387;BME280;6763;48.524;9.044;2022-10-31T06:40:38;98202.56;;;11.66;60.12
13387;BME280;6763;48.524;9.044;2022-10-31T06:43:04;98193.03;;;11.71;60.11
13387;BME280;6763;48.524;9.044;2022-10-31T06:45:29;98196.44;;;11.75;60.45
13387;BME280;6763;48.524;9.044;2022-10-31T06:47:55;98189.38;;;11.81;60.06
13387;BME280;6763;48.524;9.044;2022-10-31T06:50:21;98188.44;;;11.86;60.38
13387;BME280;6763;48.524;9.044;2022-10-31T06:52:54;98190.94;;;11.92;60.00
13387;BME280;6763;48.524;9.044;2022-10-31T06:55:21;98189.13;;;11.97;60.22
13387;BME280;6763;48.524;9.044;2022-10-31T06:57:55;98193.34;;;12.02;59.97
13387;BME280;6763;48.524;9.044;2022-10-31T07:00:21;98187.19;;;12.06;60.31
13387;BME280;6763;48.524;9.044;2022-10-31T07:02:57;98198.34;;;12.13;60.06
13387;BME280;6763;48.524;9.044;2022-10-31T07:05:22;98195.66;;;12.17;60.09
13387;BME280;6763;48.524;9.044;2022-10-31T07:07:55;98206.75;;;12.25;60.36
13387;BME280;6763;48.524;9.044;2022-10-31T07:10:22;98203.25;;;12.29;60.54
13387;BME280;6763;48.524;9.044;2022-10-31T07:12:48;98197.91;;;12.35;60.14
13387;BME280;6763;48.524;9.044;2022-10-31T07:15:13;98197.75;;;12.43;60.44
13387;BME280;6763;48.524;9.044;2022-10-31T07:17:39;98198.50;;;12.50;60.34
13387;BME280;6763;48.524;9.044;2022-10-31T07:20:05;98194.03;;;12.56;60.89
13387;BME280;6763;48.524;9.044;2022-10-31T07:22:37;98200.03;;;12.60;59.99
13387;BME280;6763;48.524;9.044;2022-10-31T07:25:03;98200.78;;;12.65;60.45
13387;BME280;6763;48.524;9.044;2022-10-31T07:27:29;98189.44;;;12.69;60.32
13387;BME280;6763;48.524;9.044;2022-10-31T07:29:59;98196.25;;;12.74;60.32
13387;BME280;6763;48.524;9.044;2022-10-31T07:32:25;98197.91;;;12.78;59.93
13387;BME280;6763;48.524;9.044;2022-10-31T07:34:50;98198.75;;;12.80;60.30
13387;BME280;6763;48.524;9.044;2022-10-31T07:37:16;98200.41;;;12.83;59.96
13387;BME280;6763;48.524;9.044;2022-10-31T07:39:41;98192.53;;;12.87;60.03
13387;BME280;6763;48.524;9.044;2022-10-31T07:42:06;98188.94;;;12.93;60.41
13387;BME280;6763;48.524;9.044;2022-10-31T07:44:31;98193.94;;;13.02;60.46
13387;BME280;6763;48.524;9.044;2022-10-31T07:46:57;98190.34;;;13.09;60.50
13387;BME280;6763;48.524;9.044;2022-10-31T07:49:22;98192.72;;;13.18;60.67
13387;BME280;6763;48.524;9.044;2022-10-31T07:51:50;98193.41;;;13.26;60.25
13387;BME280;6763;48.524;9.044;2022-10-31T07:54:15;98193.31;;;13.31;59.69
13387;BME280;6763;48.524;9.044;2022-10-31T07:56:41;98192.31;;;13.36;60.19
13387;BME280;6763;48.524;9.044;2022-10-31T07:59:06;98191.31;;;13.42;59.60
13387;BME280;6763;48.524;9.044;2022-10-31T08:01:31;98186.75;;;13.51;59.99
13387;BME280;6763;48.524;9.044;2022-10-31T08:03:57;98186.50;;;13.62;60.81
13387;BME280;6763;48.524;9.044;2022-10-31T08:06:22;98193.03;;;13.78;61.16
13387;BME280;6763;48.524;9.044;2022-10-31T08:08:47;98191.72;;;13.96;61.81
13387;BME280;6763;48.524;9.044;2022-10-31T08:11:12;98183.34;;;14.17;61.43
13387;BME280;6763;48.524;9.044;2022-10-31T08:13:38;98176.88;;;14.33;61.02
13387;BME280;6763;48.524;9.044;2022-10-31T08:16:03;98174.72;;;14.49;61.35
13387;BME280;6763;48.524;9.044;2022-10-31T08:18:30;98169.13;;;14.62;60.53
13387;BME280;6763;48.524;9.044;2022-10-31T08:20:56;98178.31;;;14.74;60.09
13387;BME280;6763;48.524;9.044;2022-10-31T08:23:21;98185.03;;;14.82;59.52
13387;BME280;6763;48.524;9.044;2022-10-31T08:25:46;98185.66;;;14.90;59.27
13387;BME280;6763;48.524;9.044;2022-10-31T08:28:13;98180.97;;;15.02;59.34
13387;BME280;6763;48.524;9.044;2022-10-31T08:30:39;98176.28;;;15.13;59.19
13387;BME280;6763;48.524;9.044;2022-10-31T08:33:16;98172.38;;;15.26;59.37
13387;BME280;6763;48.524;9.044;2022-10-31T08:35:42;98173.69;;;15.40;60.27
13387;BME280;6763;48.524;9.044;2022-10-31T08:38:10;98169.75;;;15.55;59.65
13387;BME280;6763;48.524;9.044;2022-10-31T08:40:36;98166.81;;;15.66;59.27
13387;BME280;6763;48.524;9.044;2022-10-31T08:43:08;98162.97;;;15.76;58.02
13387;BME280;6763;48.524;9.044;2022-10-31T08:45:36;98153.06;;;15.85;58.97
13387;BME280;6763;48.524;9.044;2022-10-31T08:48:03;98150.00;;;15.99;59.54
13387;BME280;6763;48.524;9.044;2022-10-31T08:50:31;98153.72;;;16.17;58.60
13387;BME280;6763;48.524;9.044;2022-10-31T08:53:05;98153.31;;;16.29;58.67
13387;BME280;6763;48.524;9.044;2022-10-31T08:55:33;98158.88;;;16.43;58.64
13387;BME280;6763;48.524;9.044;2022-10-31T08:57:59;98160.31;;;16.51;57.76
13387;BME280;6763;48.524;9.044;2022-10-31T09:00:25;98165.22;;;16.60;57.81
13387;BME280;6763;48.524;9.044;2022-10-31T09:03:03;98158.75;;;16.70;57.00
13387;BME280;6763;48.524;9.044;2022-10-31T09:05:28;98151.47;;;16.79;57.34
13387;BME280;6763;48.524;9.044;2022-10-31T09:07:58;98154.66;;;16.87;57.94
13387;BME280;6763;48.524;9.044;2022-10-31T09:10:24;98152.44;;;16.99;58.29
13387;BME280;6763;48.524;9.044;2022-10-31T09:13:10;98148.59;;;17.09;55.49
13387;BME280;6763;48.524;9.044;2022-10-31T09:15:39;98154.22;;;17.20;57.27
13387;BME280;6763;48.524;9.044;2022-10-31T09:18:05;98141.38;;;17.36;57.75
13387;BME280;6763;48.524;9.044;2022-10-31T09:20:32;98138.91;;;17.55;57.92
13387;BME280;6763;48.524;9.044;2022-10-31T09:23:03;98144.13;;;17.76;57.82
13387;BME280;6763;48.524;9.044;2022-10-31T09:25:29;98131.06;;;17.96;57.61
13387;BME280;6763;48.524;9.044;2022-10-31T09:27:59;98140.63;;;18.18;56.46
13387;BME280;6763;48.524;9.044;2022-10-31T09:30:27;98132.06;;;18.33;55.00
13387;BME280;6763;48.524;9.044;2022-10-31T09:32:57;98123.59;;;18.46;54.14
13387;BME280;6763;48.524;9.044;2022-10-31T09:35:23;98117.91;;;18.57;54.47
13387;BME280;6763;48.524;9.044;2022-10-31T09:38:00;98115.28;;;18.76;54.78
13387;BME280;6763;48.524;9.044;2022-10-31T09:40:43;98110.00;;;18.96;54.43
13387;BME280;6763;48.524;9.044;2022-10-31T09:45:56;98116.31;;;19.28;53.18
13387;BME280;6763;48.524;9.044;2022-10-31T09:53:39;98120.78;;;19.44;49.99
13387;BME280;6763;48.524;9.044;2022-10-31T09:56:12;98121.41;;;19.49;49.69
13387;BME280;6763;48.524;9.044;2022-10-31T09:58:42;98117.69;;;19.53;49.41
13387;BME280;6763;48.524;9.044;2022-10-31T10:04:03;98119.97;;;19.61;48.89
13387;BME280;6763;48.524;9.044;2022-10-31T10:06:34;98120.59;;;19.66;48.50
13387;BME280;6763;48.524;9.044;2022-10-31T10:09:01;98113.88;;;19.77;48.61
13387;BME280;6763;48.524;9.044;2022-10-31T10:11:37;98110.91;;;20.01;48.31
13387;BME280;6763;48.524;9.044;2022-10-31T10:16:42;98098.88;;;20.47;47.29
13387;BME280;6763;48.524;9.044;2022-10-31T10:19:17;98105.56;;;20.69;46.48
13387;BME280;6763;48.524;9.044;2022-10-31T10:25:04;98093.09;;;21.04;45.48
13387;BME280;6763;48.524;9.044;2022-10-31T10:27:49;98099.06;;;21.23;45.16
13387;BME280;6763;48.524;9.044;2022-10-31T10:30:21;98088.69;;;21.36;44.73
13387;BME280;6763;48.524;9.044;2022-10-31T10:35:40;98080.31;;;21.59;44.46
13387;BME280;6763;48.524;9.044;2022-10-31T10:40:54;98077.47;;;22.07;43.93
13387;BME280;6763;48.524;9.044;2022-10-31T10:43:33;98075.56;;;22.52;43.57
13387;BME280;6763;48.524;9.044;2022-10-31T10:51:42;98057.88;;;24.27;40.70
13387;BME280;6763;48.524;9.044;2022-10-31T10:59:30;98045.41;;;25.50;37.36
13387;BME280;6763;48.524;9.044;2022-10-31T11:01:57;98033.22;;;25.82;37.15
13387;BME280;6763;48.524;9.044;2022-10-31T11:04:33;98027.69;;;25.97;36.34
13387;BME280;6763;48.524;9.044;2022-10-31T11:09:23;98028.50;;;26.32;35.73
13387;BME280;6763;48.524;9.044;2022-10-31T11:11:49;98027.53;;;26.55;35.29
13387;BME280;6763;48.524;9.044;2022-10-31T11:14:16;98021.25;;;26.78;34.83
13387;BME280;6763;48.524;9.044;2022-10-31T11:16:45;98017.50;;;26.81;34.32
13387;BME280;6763;48.524;9.044;2022-10-31T11:19:23;98015.22;;;26.76;34.04
13387;BME280;6763;48.524;9.044;2022-10-31T11:21:49;98009.06;;;26.87;34.20
13387;BME280;6763;48.524;9.044;2022-10-31T11:24:16;98002.88;;;26.97;33.37
13387;BME280;6763;48.524;9.044;2022-10-31T11:26:43;98000.47;;;26.94;33.06
13387;BME280;6763;48.524;9.044;2022-10-31T11:29:17;98002.75;;;26.88;33.20
13387;BME280;6763;48.524;9.044;2022-10-31T11:31:45;97996.25;;;26.81;33.42
13387;BME280;6763;48.524;9.044;2022-10-31T11:34:26;97990.34;;;26.77;33.19
13387;BME280;6763;48.524;9.044;2022-10-31T11:36:52;97990.44;;;26.76;33.23
13387;BME280;6763;48.524;9.044;2022-10-31T11:39:21;97979.22;;;26.72;33.23
13387;BME280;6763;48.524;9.044;2022-10-31T11:41:48;97983.59;;;26.62;33.44
13387;BME280;6763;48.524;9.044;2022-10-31T11:44:18;97985.28;;;26.63;33.58
13387;BME280;6763;48.524;9.044;2022-10-31T11:46:50;97986.16;;;26.53;33.02
13387;BME280;6763;48.524;9.044;2022-10-31T11:49:20;97983.25;;;26.33;33.52
13387;BME280;6763;48.524;9.044;2022-10-31T11:51:54;97974.94;;;26.27;33.63
13387;BME280;6763;48.524;9.044;2022-10-31T11:54:27;97972.63;;;26.33;33.80
13387;BME280;6763;48.524;9.044;2022-10-31T11:56:53;97968.66;;;26.39;33.57
13387;BME280;6763;48.524;9.044;2022-10-31T11:59:24;97966.38;;;26.34;33.78
13387;BME280;6763;48.524;9.044;2022-10-31T12:01:52;97965.78;;;26.20;33.81
13387;BME280;6763;48.524;9.044;2022-10-31T12:04:18;97962.81;;;25.89;33.83
13387;BME280;6763;48.524;9.044;2022-10-31T12:06:44;97954.94;;;25.55;34.67
13387;BME280;6763;48.524;9.044;2022-10-31T12:09:25;97960.66;;;25.14;35.64
13387;BME280;6763;48.524;9.044;2022-10-31T12:15:12;97954.84;;;24.61;36.15
13387;BME280;6763;48.524;9.044;2022-10-31T12:23:29;97941.13;;;24.31;37.15
13387;BME280;6763;48.524;9.044;2022-10-31T12:26:16;97934.19;;;24.30;37.28
13387;BME280;6763;48.524;9.044;2022-10-31T12:34:28;97917.72;;;23.89;36.25
13387;BME280;6763;48.524;9.044;2022-10-31T12:37:11;97913.38;;;23.75;37.00
13387;BME280;6763;48.524;9.044;2022-10-31T12:45:55;97909.38;;;23.57;37.93
13387;BME280;6763;48.524;9.044;2022-10-31T12:51:03;97903.44;;;23.66;37.88
13387;BME280;6763;48.524;9.044;2022-10-31T12:58:37;97889.69;;;23.86;37.97
13387;BME280;6763;48.524;9.044;2022-10-31T13:01:19;97883.94;;;23.92;37.68
13387;BME280;6763;48.524;9.044;2022-10-31T13:04:05;97883.31;;;24.01;37.36
13387;BME280;6763;48.524;9.044;2022-10-31T13:06:40;97890.06;;;24.05;37.40
13387;BME280;6763;48.524;9.044;2022-10-31T13:09:11;97891.34;;;24.13;37.67
13387;BME280;6763;48.524;9.044;2022-10-31T13:11:47;97893.44;;;24.20;37.64
13387;BME280;6763;48.524;9.044;2022-10-31T13:14:42;97893.72;;;24.41;37.79
13387;BME280;6763;48.524;9.044;2022-10-31T13:17:18;97883.63;;;24.69;37.20
13387;BME280;6763;48.524;9.044;2022-10-31T13:19:47;97872.81;;;24.96;36.70
13387;BME280;6763;48.524;9.044;2022-10-31T13:22:20;97864.47;;;25.13;35.99
13387;BME280;6763;48.524;9.044;2022-10-31T13:25:13;97857.38;;;25.25;35.88
13387;BME280;6763;48.524;9.044;2022-10-31T13:30:14;97845.41;;;25.54;35.11
13387;BME280;6763;48.524;9.044;2022-10-31T13:38:05;97830.66;;;26.06;35.21
13387;BME280;6763;48.524;9.044;2022-10-31T13:45:52;97822.66;;;26.39;34.51
13387;BME280;6763;48.524;9.044;2022-10-31T13:51:05;97821.22;;;26.98;33.87
13387;BME280;6763;48.524;9.044;2022-10-31T13:53:42;97812.88;;;27.84;32.47
13387;BME280;6763;48.524;9.044;2022-10-31T13:58:34;97802.94;;;29.31;29.75
13387;BME280;6763;48.524;9.044;2022-10-31T14:01:16;97810.91;;;29.87;28.98
13387;BME280;6763;48.524;9.044;2022-10-31T14:03:46;97807.09;;;30.44;28.13
13387;BME280;6763;48.524;9.044;2022-10-31T14:06:13;97801.28;;;30.84;27.68
13387;BME280;6763;48.524;9.044;2022-10-31T14:08:50;97800.88;;;31.14;27.09
13387;BME280;6763;48.524;9.044;2022-10-31T14:11:24;97793.53;;;31.42;26.92
13387;BME280;6763;48.524;9.044;2022-10-31T14:13:52;97797.38;;;31.65;26.63
13387;BME280;6763;48.524;9.044;2022-10-31T14:16:18;97795.38;;;31.67;26.69
13387;BME280;6763;48.524;9.044;2022-10-31T14:18:50;97792.22;;;31.72;26.68
13387;BME280;6763;48.524;9.044;2022-10-31T14:23:48;97787.91;;;32.21;25.74
13387;BME280;6763;48.524;9.044;2022-10-31T14:28:50;97788.75;;;32.21;25.07
13387;BME280;6763;48.524;9.044;2022-10-31T14:34:51;97797.41;;;30.96;26.61
13387;BME280;6763;48.524;9.044;2022-10-31T14:40:12;97799.22;;;29.88;27.78
13387;BME280;6763;48.524;9.044;2022-10-31T14:45:20;97794.56;;;30.18;27.48
13387;BME280;6763;48.524;9.044;2022-10-31T14:50:53;97788.53;;;30.43;27.38
13387;BME280;6763;48.524;9.044;2022-10-31T14:53:20;97783.41;;;30.04;28.34
13387;BME280;6763;48.524;9.044;2022-10-31T14:55:49;97781.72;;;29.39;29.43
13387;BME280;6763;48.524;9.044;2022-10-31T14:58:19;97780.03;;;28.63;30.27
13387;BME280;6763;48.524;9.044;2022-10-31T15:00:46;97780.16;;;27.93;31.02
13387;BME280;6763;48.524;9.044;2022-10-31T15:03:15;97783.94;;;27.30;32.20
13387;BME280;6763;48.524;9.044;2022-10-31T15:05:46;97776.66;;;26.70;33.16
13387;BME280;6763;48.524;9.044;2022-10-31T15:10:56;97771.38;;;25.73;35.14
13387;BME280;6763;48.524;9.044;2022-10-31T15:13:22;97780.53;;;25.36;35.99
13387;BME280;6763;48.524;9.044;2022-10-31T15:15:48;97774.59;;;24.99;36.80
13387;BME280;6763;48.524;9.044;2022-10-31T15:18:20;97776.28;;;24.65;37.35